Lulu Pass Weather Station

This weather station provides temperature, relative humidity (RH), wind speed, gust or max wind speed, and wind direction at 10014ft near Lulu Pass at the head of Fisher Creek. This data can be used with temperature and precipitation data from the Fisher Creek SNOTEL site.

This weather station was purchased by the Friends of the Avalanche Center.

If the data has not been updated recently you can view it directly on datagarrison.com

Elevation
10014ft
Jump to table bottom
Date Time Temperature
deg F
RH, % Wind Speed Wind Gust Wind Direction
12/09/19 08:00 6.5 93 10 14 NW - 316
12/09/19 07:00 5.7 93 12 16 NW - 310
12/09/19 06:00 5.6 93 12 16 NW - 316
12/09/19 05:00 5.5 93 11 17 NW - 306
12/09/19 04:00 6.0 93 10 15 NW - 309
12/09/19 03:00 6.6 93 13 17 NW - 312
12/09/19 02:00 6.9 93 14 18 NW - 313
12/09/19 01:00 8.2 94 14 18 NW - 316
12/09/19 00:00 8.8 94 15 20 NW - 320
12/08/19 23:00 9.0 94 18 24 NW - 321
12/08/19 22:00 9.5 94 20 26 NW - 321
12/08/19 21:00 9.9 94 23 29 NW - 324
12/08/19 20:00 10.4 94 21 26 NW - 326
12/08/19 19:00 10.4 95 21 30 NW - 324
12/08/19 18:00 10.0 95 28 37 NW - 334
12/08/19 17:00 11.7 95 27 35 NW - 337
12/08/19 16:00 14.1 96 23 37 N - 341
12/08/19 15:00 18.1 97 16 29 NW - 295
12/08/19 14:00 18.8 97 11 25 W - 285
12/08/19 13:00 19.9 98 12 21 W - 291
12/08/19 12:00 20.6 98 10 19 W - 289
12/08/19 11:00 20.3 98 12 20 W - 261
12/08/19 10:00 20.2 98 7 20 SW - 236
12/08/19 09:00 20.4 98 10 24 SW - 229
12/08/19 08:00 20.9 98 12 26 SW - 234
12/08/19 07:00 21.7 98 12 24 NW - 299
12/08/19 06:00 22.6 99 10 22 W - 278
12/08/19 05:00 22.7 99 11 26 SW - 237
12/08/19 04:00 22.7 99 13 38 SW - 226
12/08/19 03:00 22.7 98 17 32 SW - 212
12/08/19 02:00 22.5 98 20 44 SW - 204
12/08/19 01:00 22.0 98 13 35 SW - 209
12/08/19 00:00 21.5 98 9 21 SW - 230
12/07/19 23:00 21.6 98 13 25 SW - 213
12/07/19 22:00 21.4 98 16 27 SW - 216
12/07/19 21:00 21.2 98 15 31 SW - 213
12/07/19 20:00 21.0 98 15 30 SW - 216
12/07/19 19:00 21.2 98 12 26 SW - 229
12/07/19 18:00 21.1 98 13 25 SW - 234
12/07/19 17:00 20.8 98 12 34 SW - 239
12/07/19 16:00 20.6 98 17 37 SW - 233
12/07/19 15:00 20.6 98 13 29 SW - 229
12/07/19 14:00 20.6 98 14 39 SW - 215
12/07/19 13:00 21.0 98 11 25 SW - 213
12/07/19 12:00 21.4 98 10 28 SW - 220
12/07/19 11:00 20.7 98 16 35 SW - 208
12/07/19 10:00 20.6 98 10 22 SW - 219
12/07/19 09:00 20.6 98 14 27 SW - 216
12/07/19 08:00 20.4 98 11 27 SW - 215
12/07/19 07:00 20.3 98 11 23 SW - 216